Terminal Aerodrome Forecast
Issued by NWS

Home | Current Version | Previous Version | Text Only | Print | Product List | Glossary On
Versions: 1 2 3 4 5 6 7 8 9 10 11 12 13 14 15
452
FTUS46 KMTR 291739
TAFOAK
TAF
KOAK 291739Z 2918/3024 30009KT P6SM SKC
     FM292200 30016KT P6SM SKC
     FM300300 30010KT P6SM FEW008
     FM300800 31006KT P6SM SCT008
     FM301000 31006KT P6SM OVC008
     FM301700 30009KT P6SM FEW008
     FM302100 31014KT P6SM SKC=

USA.gov is the U.S. government's official web portal to all federal, state and local government web resources and services.